sensor_id;sensor_type;location;lat;lon;timestamp;pressure;altitude;pressure_sealevel;temperature;humidity
19457;BME280;9867;48.094;11.478;2023-02-11T00:00:19;97036.38;;;-2.10;100.00
19457;BME280;9867;48.094;11.478;2023-02-11T00:02:46;97037.13;;;-2.08;100.00
19457;BME280;9867;48.094;11.478;2023-02-11T00:05:14;97038.00;;;-2.09;100.00
19457;BME280;9867;48.094;11.478;2023-02-11T00:07:40;97030.31;;;-2.06;100.00
19457;BME280;9867;48.094;11.478;2023-02-11T00:10:07;97032.75;;;-2.04;100.00
19457;BME280;9867;48.094;11.478;2023-02-11T00:12:34;97025.16;;;-2.02;100.00
19457;BME280;9867;48.094;11.478;2023-02-11T00:15:01;97014.06;;;-2.16;100.00
19457;BME280;9867;48.094;11.478;2023-02-11T00:17:28;97032.03;;;-2.06;100.00
19457;BME280;9867;48.094;11.478;2023-02-11T00:19:54;97034.09;;;-2.14;100.00
19457;BME280;9867;48.094;11.478;2023-02-11T00:22:21;97042.34;;;-2.12;100.00
19457;BME280;9867;48.094;11.478;2023-02-11T00:24:48;97038.44;;;-2.18;100.00
19457;BME280;9867;48.094;11.478;2023-02-11T00:27:14;97041.66;;;-2.14;100.00
19457;BME280;9867;48.094;11.478;2023-02-11T00:29:40;97009.13;;;0.82;100.00
19457;BME280;9867;48.094;11.478;2023-02-11T00:32:08;97035.78;;;2.11;100.00
19457;BME280;9867;48.094;11.478;2023-02-11T00:34:35;97032.13;;;0.63;100.00
19457;BME280;9867;48.094;11.478;2023-02-11T00:37:03;97030.19;;;-0.38;100.00
19457;BME280;9867;48.094;11.478;2023-02-11T00:39:30;97028.94;;;-0.93;100.00
19457;BME280;9867;48.094;11.478;2023-02-11T00:41:57;97031.34;;;-1.23;100.00
19457;BME280;9867;48.094;11.478;2023-02-11T00:44:23;97025.50;;;-1.41;100.00
19457;BME280;9867;48.094;11.478;2023-02-11T00:46:50;97021.59;;;-1.47;100.00
19457;BME280;9867;48.094;11.478;2023-02-11T00:49:17;97016.19;;;-1.56;100.00
19457;BME280;9867;48.094;11.478;2023-02-11T00:51:44;97022.72;;;-1.69;100.00
19457;BME280;9867;48.094;11.478;2023-02-11T00:54:11;97016.16;;;-1.72;100.00
19457;BME280;9867;48.094;11.478;2023-02-11T00:56:38;97014.81;;;-1.79;100.00
19457;BME280;9867;48.094;11.478;2023-02-11T00:59:04;97008.38;;;-1.85;100.00
19457;BME280;9867;48.094;11.478;2023-02-11T01:01:30;97000.66;;;-1.82;100.00
19457;BME280;9867;48.094;11.478;2023-02-11T01:03:57;97020.94;;;-1.85;100.00
19457;BME280;9867;48.094;11.478;2023-02-11T01:06:24;97002.75;;;-1.90;100.00
19457;BME280;9867;48.094;11.478;2023-02-11T01:08:51;97007.41;;;-1.82;100.00
19457;BME280;9867;48.094;11.478;2023-02-11T01:11:19;97009.84;;;-1.81;100.00
19457;BME280;9867;48.094;11.478;2023-02-11T01:13:46;97002.75;;;-1.73;100.00
19457;BME280;9867;48.094;11.478;2023-02-11T01:16:14;97006.44;;;-1.62;100.00
19457;BME280;9867;48.094;11.478;2023-02-11T01:18:41;97002.69;;;-1.71;100.00
19457;BME280;9867;48.094;11.478;2023-02-11T01:21:09;97000.16;;;-1.71;100.00
19457;BME280;9867;48.094;11.478;2023-02-11T01:23:35;97007.31;;;-1.63;100.00
19457;BME280;9867;48.094;11.478;2023-02-11T01:26:04;97010.31;;;-1.40;100.00
19457;BME280;9867;48.094;11.478;2023-02-11T01:28:31;96992.06;;;-1.60;100.00
19457;BME280;9867;48.094;11.478;2023-02-11T01:30:59;97010.50;;;-1.43;100.00
19457;BME280;9867;48.094;11.478;2023-02-11T01:33:25;97004.13;;;-1.50;100.00
19457;BME280;9867;48.094;11.478;2023-02-11T01:35:52;96994.66;;;-1.45;100.00
19457;BME280;9867;48.094;11.478;2023-02-11T01:38:21;96996.50;;;-1.48;100.00
19457;BME280;9867;48.094;11.478;2023-02-11T01:40:50;97002.22;;;-1.45;100.00
19457;BME280;9867;48.094;11.478;2023-02-11T01:43:18;97004.13;;;-1.50;100.00
19457;BME280;9867;48.094;11.478;2023-02-11T01:45:58;97012.91;;;-1.41;100.00
19457;BME280;9867;48.094;11.478;2023-02-11T01:48:28;97003.78;;;-1.26;100.00
19457;BME280;9867;48.094;11.478;2023-02-11T01:50:59;97008.09;;;-1.28;100.00
19457;BME280;9867;48.094;11.478;2023-02-11T01:53:28;97010.41;;;-1.41;100.00
19457;BME280;9867;48.094;11.478;2023-02-11T01:56:14;97005.53;;;-1.61;100.00
19457;BME280;9867;48.094;11.478;2023-02-11T01:59:06;97002.88;;;-1.58;100.00
19457;BME280;9867;48.094;11.478;2023-02-11T02:01:34;96989.94;;;-1.51;100.00
19457;BME280;9867;48.094;11.478;2023-02-11T02:04:04;97000.75;;;-1.66;100.00
19457;BME280;9867;48.094;11.478;2023-02-11T02:06:34;97009.75;;;-1.62;100.00
19457;BME280;9867;48.094;11.478;2023-02-11T02:09:04;97002.59;;;-1.69;100.00
19457;BME280;9867;48.094;11.478;2023-02-11T02:11:31;96997.78;;;-1.57;100.00
19457;BME280;9867;48.094;11.478;2023-02-11T02:13:58;96997.41;;;-1.49;100.00
19457;BME280;9867;48.094;11.478;2023-02-11T02:16:29;96994.72;;;-1.46;100.00
19457;BME280;9867;48.094;11.478;2023-02-11T02:19:17;96984.97;;;-1.52;100.00
19457;BME280;9867;48.094;11.478;2023-02-11T02:25:10;96974.84;;;-1.85;100.00
19457;BME280;9867;48.094;11.478;2023-02-11T02:27:49;96984.91;;;-1.85;100.00
19457;BME280;9867;48.094;11.478;2023-02-11T02:30:34;96972.84;;;-1.79;100.00
19457;BME280;9867;48.094;11.478;2023-02-11T02:33:22;96961.47;;;-1.86;100.00
19457;BME280;9867;48.094;11.478;2023-02-11T02:35:57;96964.88;;;-1.87;100.00
19457;BME280;9867;48.094;11.478;2023-02-11T02:38:30;96952.97;;;-1.83;100.00
19457;BME280;9867;48.094;11.478;2023-02-11T02:41:02;96951.84;;;-1.78;100.00
19457;BME280;9867;48.094;11.478;2023-02-11T02:43:32;96960.50;;;-1.83;100.00
19457;BME280;9867;48.094;11.478;2023-02-11T02:46:10;96942.81;;;-1.82;100.00
19457;BME280;9867;48.094;11.478;2023-02-11T02:48:37;96951.22;;;-1.98;100.00
19457;BME280;9867;48.094;11.478;2023-02-11T02:51:14;96953.28;;;-1.89;100.00
19457;BME280;9867;48.094;11.478;2023-02-11T02:53:49;96948.31;;;-1.91;100.00
19457;BME280;9867;48.094;11.478;2023-02-11T02:56:24;96953.50;;;-1.94;100.00
19457;BME280;9867;48.094;11.478;2023-02-11T02:59:25;96939.78;;;-1.88;100.00
19457;BME280;9867;48.094;11.478;2023-02-11T03:01:59;96934.13;;;-1.92;100.00
19457;BME280;9867;48.094;11.478;2023-02-11T03:04:36;96931.97;;;-1.99;100.00
19457;BME280;9867;48.094;11.478;2023-02-11T03:07:13;96929.97;;;-2.10;100.00
19457;BME280;9867;48.094;11.478;2023-02-11T03:09:47;96927.25;;;-2.06;100.00
19457;BME280;9867;48.094;11.478;2023-02-11T03:12:15;96927.47;;;-2.10;100.00
19457;BME280;9867;48.094;11.478;2023-02-11T03:14:43;96924.53;;;-2.18;100.00
19457;BME280;9867;48.094;11.478;2023-02-11T03:17:10;96915.56;;;-2.24;100.00
19457;BME280;9867;48.094;11.478;2023-02-11T03:19:39;96907.22;;;-2.24;100.00
19457;BME280;9867;48.094;11.478;2023-02-11T03:22:11;96909.88;;;-2.27;100.00
19457;BME280;9867;48.094;11.478;2023-02-11T03:24:40;96911.28;;;-2.22;100.00
19457;BME280;9867;48.094;11.478;2023-02-11T03:27:11;96905.31;;;-2.19;100.00
19457;BME280;9867;48.094;11.478;2023-02-11T03:29:43;96905.81;;;-2.13;100.00
19457;BME280;9867;48.094;11.478;2023-02-11T03:32:16;96897.75;;;-2.02;100.00
19457;BME280;9867;48.094;11.478;2023-02-11T03:34:49;96912.75;;;-2.00;100.00
19457;BME280;9867;48.094;11.478;2023-02-11T03:37:21;96908.91;;;-1.90;100.00
19457;BME280;9867;48.094;11.478;2023-02-11T03:39:53;96894.69;;;-1.91;100.00
19457;BME280;9867;48.094;11.478;2023-02-11T03:42:22;96899.72;;;-1.91;100.00
19457;BME280;9867;48.094;11.478;2023-02-11T03:44:56;96898.63;;;-2.03;100.00
19457;BME280;9867;48.094;11.478;2023-02-11T03:47:25;96915.56;;;-2.07;100.00
19457;BME280;9867;48.094;11.478;2023-02-11T03:49:54;96914.81;;;-1.91;100.00
19457;BME280;9867;48.094;11.478;2023-02-11T03:52:23;96892.13;;;-2.07;100.00
19457;BME280;9867;48.094;11.478;2023-02-11T03:54:55;96905.78;;;-1.95;100.00
19457;BME280;9867;48.094;11.478;2023-02-11T03:57:23;96901.59;;;-1.95;100.00
19457;BME280;9867;48.094;11.478;2023-02-11T03:59:51;96913.19;;;-1.92;100.00
19457;BME280;9867;48.094;11.478;2023-02-11T04:02:18;96915.09;;;-1.80;100.00
19457;BME280;9867;48.094;11.478;2023-02-11T04:04:45;96921.56;;;-1.92;100.00
19457;BME280;9867;48.094;11.478;2023-02-11T04:07:13;96909.31;;;-1.82;100.00
19457;BME280;9867;48.094;11.478;2023-02-11T04:09:39;96910.19;;;-1.83;100.00
19457;BME280;9867;48.094;11.478;2023-02-11T04:12:06;96911.91;;;-1.84;100.00
19457;BME280;9867;48.094;11.478;2023-02-11T04:14:32;96918.16;;;-1.91;100.00
19457;BME280;9867;48.094;11.478;2023-02-11T04:16:59;96912.53;;;-1.96;100.00
19457;BME280;9867;48.094;11.478;2023-02-11T04:19:25;96916.16;;;-2.01;100.00
19457;BME280;9867;48.094;11.478;2023-02-11T04:21:52;96914.00;;;-2.09;100.00
19457;BME280;9867;48.094;11.478;2023-02-11T04:24:19;96916.16;;;-2.01;100.00
19457;BME280;9867;48.094;11.478;2023-02-11T04:26:45;96926.22;;;-2.01;100.00
19457;BME280;9867;48.094;11.478;2023-02-11T04:29:11;96916.22;;;-2.03;100.00
19457;BME280;9867;48.094;11.478;2023-02-11T04:31:38;96918.22;;;-2.10;100.00
19457;BME280;9867;48.094;11.478;2023-02-11T04:34:04;96932.56;;;-1.94;100.00
19457;BME280;9867;48.094;11.478;2023-02-11T04:36:31;96926.94;;;-1.99;100.00
19457;BME280;9867;48.094;11.478;2023-02-11T04:38:57;96932.28;;;-2.06;100.00
19457;BME280;9867;48.094;11.478;2023-02-11T04:41:25;96935.75;;;-2.08;100.00
19457;BME280;9867;48.094;11.478;2023-02-11T04:43:51;96944.72;;;-2.20;100.00
19457;BME280;9867;48.094;11.478;2023-02-11T04:46:17;96941.09;;;-2.14;100.00
19457;BME280;9867;48.094;11.478;2023-02-11T04:48:44;96944.09;;;-2.08;100.00
19457;BME280;9867;48.094;11.478;2023-02-11T04:51:10;96947.66;;;-1.94;100.00
19457;BME280;9867;48.094;11.478;2023-02-11T04:53:37;96953.56;;;-1.95;100.00
19457;BME280;9867;48.094;11.478;2023-02-11T04:56:04;96951.28;;;-2.00;100.00
19457;BME280;9867;48.094;11.478;2023-02-11T04:58:31;96961.47;;;-2.20;100.00
19457;BME280;9867;48.094;11.478;2023-02-11T05:01:04;96960.91;;;-2.61;100.00
19457;BME280;9867;48.094;11.478;2023-02-11T05:03:31;96962.25;;;-2.90;100.00
19457;BME280;9867;48.094;11.478;2023-02-11T05:05:57;96958.69;;;-3.24;100.00
19457;BME280;9867;48.094;11.478;2023-02-11T05:08:24;96977.31;;;-3.48;100.00
19457;BME280;9867;48.094;11.478;2023-02-11T05:10:50;96966.16;;;-3.41;100.00
19457;BME280;9867;48.094;11.478;2023-02-11T05:13:17;96968.88;;;-3.27;100.00
19457;BME280;9867;48.094;11.478;2023-02-11T05:15:44;96962.50;;;-2.96;100.00
19457;BME280;9867;48.094;11.478;2023-02-11T05:18:10;96966.84;;;-2.81;100.00
19457;BME280;9867;48.094;11.478;2023-02-11T05:20:37;96962.69;;;-2.63;100.00
19457;BME280;9867;48.094;11.478;2023-02-11T05:23:03;96957.13;;;-2.70;100.00
19457;BME280;9867;48.094;11.478;2023-02-11T05:25:30;96953.44;;;-2.63;100.00
19457;BME280;9867;48.094;11.478;2023-02-11T05:27:56;96948.88;;;-2.55;100.00
19457;BME280;9867;48.094;11.478;2023-02-11T05:30:23;96951.38;;;-2.55;100.00
19457;BME280;9867;48.094;11.478;2023-02-11T05:32:50;96949.41;;;-2.48;100.00
19457;BME280;9867;48.094;11.478;2023-02-11T05:35:17;96949.13;;;-2.42;100.00
19457;BME280;9867;48.094;11.478;2023-02-11T05:37:43;96950.63;;;-2.38;100.00
19457;BME280;9867;48.094;11.478;2023-02-11T05:40:10;96940.38;;;-2.35;100.00
19457;BME280;9867;48.094;11.478;2023-02-11T05:42:37;96935.81;;;-2.27;100.00
19457;BME280;9867;48.094;11.478;2023-02-11T05:45:04;96944.25;;;-2.28;100.00
19457;BME280;9867;48.094;11.478;2023-02-11T05:47:30;96942.41;;;-2.24;100.00
19457;BME280;9867;48.094;11.478;2023-02-11T05:49:57;96944.84;;;-2.23;100.00
19457;BME280;9867;48.094;11.478;2023-02-11T05:52:24;96943.69;;;-2.16;100.00
19457;BME280;9867;48.094;11.478;2023-02-11T05:54:50;96932.19;;;-2.04;100.00
19457;BME280;9867;48.094;11.478;2023-02-11T05:57:18;96936.47;;;-1.89;100.00
19457;BME280;9867;48.094;11.478;2023-02-11T05:59:44;96930.53;;;-1.88;100.00
19457;BME280;9867;48.094;11.478;2023-02-11T06:02:11;96927.38;;;-1.74;100.00
19457;BME280;9867;48.094;11.478;2023-02-11T06:04:38;96919.16;;;-1.78;100.00
19457;BME280;9867;48.094;11.478;2023-02-11T06:07:05;96923.59;;;-1.50;100.00
19457;BME280;9867;48.094;11.478;2023-02-11T06:09:34;96921.41;;;-1.40;100.00
19457;BME280;9867;48.094;11.478;2023-02-11T06:12:04;96924.44;;;-1.33;100.00
19457;BME280;9867;48.094;11.478;2023-02-11T06:14:31;96918.19;;;-1.42;100.00
19457;BME280;9867;48.094;11.478;2023-02-11T06:17:01;96909.00;;;-1.43;100.00
19457;BME280;9867;48.094;11.478;2023-02-11T06:19:27;96919.25;;;-1.30;100.00
19457;BME280;9867;48.094;11.478;2023-02-11T06:21:54;96927.47;;;-1.27;100.00
19457;BME280;9867;48.094;11.478;2023-02-11T06:24:22;96919.97;;;-1.28;100.00
19457;BME280;9867;48.094;11.478;2023-02-11T06:27:08;96930.63;;;-1.23;100.00
19457;BME280;9867;48.094;11.478;2023-02-11T06:29:35;96914.22;;;-1.15;100.00
19457;BME280;9867;48.094;11.478;2023-02-11T06:32:01;96919.66;;;-1.07;100.00
19457;BME280;9867;48.094;11.478;2023-02-11T06:34:28;96929.59;;;-1.04;100.00
19457;BME280;9867;48.094;11.478;2023-02-11T06:36:55;96932.66;;;-0.83;100.00
19457;BME280;9867;48.094;11.478;2023-02-11T06:39:22;96913.25;;;-0.96;100.00
19457;BME280;9867;48.094;11.478;2023-02-11T06:41:49;96932.41;;;-0.78;100.00
19457;BME280;9867;48.094;11.478;2023-02-11T06:44:15;96928.19;;;-0.78;100.00
19457;BME280;9867;48.094;11.478;2023-02-11T06:46:42;96927.44;;;-0.64;100.00
19457;BME280;9867;48.094;11.478;2023-02-11T06:49:08;96931.00;;;-0.68;100.00
19457;BME280;9867;48.094;11.478;2023-02-11T06:51:35;96925.66;;;-0.62;100.00
19457;BME280;9867;48.094;11.478;2023-02-11T06:54:05;96920.69;;;-0.63;100.00
19457;BME280;9867;48.094;11.478;2023-02-11T06:56:33;96911.25;;;-0.60;100.00
19457;BME280;9867;48.094;11.478;2023-02-11T06:58:59;96932.13;;;-0.42;100.00
19457;BME280;9867;48.094;11.478;2023-02-11T07:01:30;96920.22;;;-0.24;100.00
19457;BME280;9867;48.094;11.478;2023-02-11T07:03:57;96931.81;;;-0.22;100.00
19457;BME280;9867;48.094;11.478;2023-02-11T07:06:25;96925.72;;;-0.18;100.00
19457;BME280;9867;48.094;11.478;2023-02-11T07:08:53;96921.94;;;-0.11;100.00
19457;BME280;9867;48.094;11.478;2023-02-11T07:11:21;96941.16;;;-0.08;100.00
19457;BME280;9867;48.094;11.478;2023-02-11T07:13:50;96938.88;;;-0.13;100.00
19457;BME280;9867;48.094;11.478;2023-02-11T07:16:18;96912.44;;;-0.21;100.00
19457;BME280;9867;48.094;11.478;2023-02-11T07:18:46;96939.19;;;-0.03;100.00
19457;BME280;9867;48.094;11.478;2023-02-11T07:21:15;96958.47;;;0.12;100.00
19457;BME280;9867;48.094;11.478;2023-02-11T07:23:42;96954.06;;;0.16;100.00
19457;BME280;9867;48.094;11.478;2023-02-11T07:26:11;96945.63;;;0.17;100.00
19457;BME280;9867;48.094;11.478;2023-02-11T07:28:39;96936.41;;;0.16;100.00
19457;BME280;9867;48.094;11.478;2023-02-11T07:31:07;96930.81;;;0.25;100.00
19457;BME280;9867;48.094;11.478;2023-02-11T07:33:34;96919.66;;;0.29;100.00
19457;BME280;9867;48.094;11.478;2023-02-11T07:36:02;96929.19;;;0.24;100.00
19457;BME280;9867;48.094;11.478;2023-02-11T07:38:30;96923.63;;;0.19;100.00
19457;BME280;9867;48.094;11.478;2023-02-11T07:40:58;96915.16;;;0.34;100.00
19457;BME280;9867;48.094;11.478;2023-02-11T07:43:25;96915.97;;;0.34;100.00
19457;BME280;9867;48.094;11.478;2023-02-11T07:45:52;96931.84;;;0.37;100.00
19457;BME280;9867;48.094;11.478;2023-02-11T07:48:19;96931.41;;;0.44;100.00
19457;BME280;9867;48.094;11.478;2023-02-11T07:50:46;96931.75;;;0.66;100.00
19457;BME280;9867;48.094;11.478;2023-02-11T07:53:12;96933.81;;;0.60;100.00
19457;BME280;9867;48.094;11.478;2023-02-11T07:55:39;96929.22;;;0.66;100.00
19457;BME280;9867;48.094;11.478;2023-02-11T07:58:05;96929.06;;;0.70;100.00
19457;BME280;9867;48.094;11.478;2023-02-11T08:00:32;96924.78;;;0.84;100.00
19457;BME280;9867;48.094;11.478;2023-02-11T08:03:00;96921.13;;;1.02;100.00
19457;BME280;9867;48.094;11.478;2023-02-11T08:05:27;96924.91;;;1.10;100.00
19457;BME280;9867;48.094;11.478;2023-02-11T08:07:55;96923.16;;;1.24;100.00
19457;BME280;9867;48.094;11.478;2023-02-11T08:10:21;96905.75;;;1.20;100.00
19457;BME280;9867;48.094;11.478;2023-02-11T08:12:48;96906.56;;;1.20;100.00
19457;BME280;9867;48.094;11.478;2023-02-11T08:15:15;96887.06;;;1.22;100.00
19457;BME280;9867;48.094;11.478;2023-02-11T08:17:41;96896.59;;;1.31;100.00
19457;BME280;9867;48.094;11.478;2023-02-11T08:20:08;96898.56;;;1.41;100.00
19457;BME280;9867;48.094;11.478;2023-02-11T08:22:36;96899.97;;;1.45;100.00
19457;BME280;9867;48.094;11.478;2023-02-11T08:25:03;96904.06;;;1.60;100.00
19457;BME280;9867;48.094;11.478;2023-02-11T08:27:30;96906.53;;;1.74;100.00
19457;BME280;9867;48.094;11.478;2023-02-11T08:30:03;96885.97;;;1.66;100.00
19457;BME280;9867;48.094;11.478;2023-02-11T08:32:30;96900.56;;;1.75;100.00
19457;BME280;9867;48.094;11.478;2023-02-11T08:34:56;96895.63;;;1.86;100.00
19457;BME280;9867;48.094;11.478;2023-02-11T08:37:23;96907.66;;;1.83;100.00
19457;BME280;9867;48.094;11.478;2023-02-11T08:39:50;96909.91;;;1.87;100.00
19457;BME280;9867;48.094;11.478;2023-02-11T08:42:16;96907.38;;;1.87;100.00
19457;BME280;9867;48.094;11.478;2023-02-11T08:44:43;96916.19;;;2.07;100.00
19457;BME280;9867;48.094;11.478;2023-02-11T08:47:11;96907.81;;;2.32;100.00
19457;BME280;9867;48.094;11.478;2023-02-11T08:49:37;96916.59;;;2.26;100.00
19457;BME280;9867;48.094;11.478;2023-02-11T08:52:07;96925.72;;;2.42;100.00
19457;BME280;9867;48.094;11.478;2023-02-11T08:54:33;96923.47;;;2.62;100.00
19457;BME280;9867;48.094;11.478;2023-02-11T08:57:00;96930.34;;;2.60;100.00
19457;BME280;9867;48.094;11.478;2023-02-11T08:59:27;96925.50;;;2.70;100.00
19457;BME280;9867;48.094;11.478;2023-02-11T09:01:54;96919.41;;;2.72;100.00
19457;BME280;9867;48.094;11.478;2023-02-11T09:04:20;96910.38;;;2.81;100.00
19457;BME280;9867;48.094;11.478;2023-02-11T09:06:47;96894.69;;;2.76;100.00
19457;BME280;9867;48.094;11.478;2023-02-11T09:09:14;96891.75;;;3.06;100.00
19457;BME280;9867;48.094;11.478;2023-02-11T09:11:42;96907.53;;;3.09;100.00
19457;BME280;9867;48.094;11.478;2023-02-11T09:14:17;96905.94;;;3.08;100.00
19457;BME280;9867;48.094;11.478;2023-02-11T09:16:45;96910.84;;;2.99;100.00
19457;BME280;9867;48.094;11.478;2023-02-11T09:19:12;96890.28;;;3.62;100.00
19457;BME280;9867;48.094;11.478;2023-02-11T09:21:40;96879.00;;;5.23;100.00
19457;BME280;9867;48.094;11.478;2023-02-11T09:24:06;96903.84;;;5.94;84.15
19457;BME280;9867;48.094;11.478;2023-02-11T09:26:40;96893.81;;;5.61;86.78
19457;BME280;9867;48.094;11.478;2023-02-11T09:29:08;96898.59;;;6.58;73.46
19457;BME280;9867;48.094;11.478;2023-02-11T09:31:36;96890.47;;;5.81;80.54
19457;BME280;9867;48.094;11.478;2023-02-11T09:34:04;96886.81;;;5.74;78.11
19457;BME280;9867;48.094;11.478;2023-02-11T09:36:36;96890.16;;;5.74;77.64
19457;BME280;9867;48.094;11.478;2023-02-11T09:39:08;96905.00;;;6.53;69.84
19457;BME280;9867;48.094;11.478;2023-02-11T09:41:47;96906.38;;;6.57;66.14
19457;BME280;9867;48.094;11.478;2023-02-11T09:44:20;96901.13;;;5.11;73.94
19457;BME280;9867;48.094;11.478;2023-02-11T09:46:54;96896.44;;;4.73;85.79
19457;BME280;9867;48.094;11.478;2023-02-11T09:49:24;96885.94;;;4.55;88.40
19457;BME280;9867;48.094;11.478;2023-02-11T09:51:56;96901.53;;;4.95;87.13
19457;BME280;9867;48.094;11.478;2023-02-11T09:54:30;96900.94;;;4.80;83.41
19457;BME280;9867;48.094;11.478;2023-02-11T09:56:59;96937.69;;;5.10;81.21
19457;BME280;9867;48.094;11.478;2023-02-11T09:59:26;96897.97;;;5.30;83.90
19457;BME280;9867;48.094;11.478;2023-02-11T10:01:57;96900.91;;;5.78;71.29
19457;BME280;9867;48.094;11.478;2023-02-11T10:04:42;96879.97;;;5.74;73.46
19457;BME280;9867;48.094;11.478;2023-02-11T10:07:18;96886.63;;;5.34;80.28
19457;BME280;9867;48.094;11.478;2023-02-11T10:09:59;96882.19;;;5.04;80.43
19457;BME280;9867;48.094;11.478;2023-02-11T10:12:37;96871.13;;;5.26;83.76
19457;BME280;9867;48.094;11.478;2023-02-11T10:15:15;96870.28;;;5.04;79.07
19457;BME280;9867;48.094;11.478;2023-02-11T10:18:03;96878.59;;;5.06;82.32
19457;BME280;9867;48.094;11.478;2023-02-11T10:20:35;96867.59;;;5.06;81.58
19457;BME280;9867;48.094;11.478;2023-02-11T10:23:09;96862.88;;;5.12;84.07
19457;BME280;9867;48.094;11.478;2023-02-11T10:25:42;96861.19;;;4.91;81.12
19457;BME280;9867;48.094;11.478;2023-02-11T10:28:15;96862.44;;;5.39;80.40
19457;BME280;9867;48.094;11.478;2023-02-11T10:30:44;96853.50;;;5.13;75.27
19457;BME280;9867;48.094;11.478;2023-02-11T10:33:24;96843.44;;;5.11;72.52
19457;BME280;9867;48.094;11.478;2023-02-11T10:35:51;96860.72;;;5.61;71.54
19457;BME280;9867;48.094;11.478;2023-02-11T10:38:18;96871.75;;;5.50;66.33
19457;BME280;9867;48.094;11.478;2023-02-11T10:40:48;96875.59;;;5.01;66.85
19457;BME280;9867;48.094;11.478;2023-02-11T10:43:16;96878.13;;;5.01;67.89
19457;BME280;9867;48.094;11.478;2023-02-11T10:45:47;96866.41;;;5.21;67.39
19457;BME280;9867;48.094;11.478;2023-02-11T10:48:38;96862.66;;;5.04;66.98
19457;BME280;9867;48.094;11.478;2023-02-11T10:51:07;96857.03;;;4.90;68.73
19457;BME280;9867;48.094;11.478;2023-02-11T10:53:40;96856.56;;;4.85;71.77
19457;BME280;9867;48.094;11.478;2023-02-11T10:56:10;96857.94;;;4.89;69.75
19457;BME280;9867;48.094;11.478;2023-02-11T10:58:42;96846.09;;;5.10;68.56
19457;BME280;9867;48.094;11.478;2023-02-11T11:01:10;96864.72;;;4.99;67.54
19457;BME280;9867;48.094;11.478;2023-02-11T11:03:51;96863.09;;;5.09;69.11
19457;BME280;9867;48.094;11.478;2023-02-11T11:06:28;96854.78;;;5.07;67.15
19457;BME280;9867;48.094;11.478;2023-02-11T11:08:55;96854.81;;;5.28;64.98
19457;BME280;9867;48.094;11.478;2023-02-11T11:11:23;96861.88;;;5.25;64.80
19457;BME280;9867;48.094;11.478;2023-02-11T11:13:58;96841.63;;;5.34;64.17
19457;BME280;9867;48.094;11.478;2023-02-11T11:16:29;96840.34;;;5.40;63.57
19457;BME280;9867;48.094;11.478;2023-02-11T11:19:21;96836.50;;;5.66;66.02
19457;BME280;9867;48.094;11.478;2023-02-11T11:21:49;96821.72;;;5.60;62.28
19457;BME280;9867;48.094;11.478;2023-02-11T11:24:20;96839.88;;;5.67;62.82
19457;BME280;9867;48.094;11.478;2023-02-11T11:26:53;96839.44;;;5.62;61.81
19457;BME280;9867;48.094;11.478;2023-02-11T11:29:23;96832.06;;;5.47;63.59
19457;BME280;9867;48.094;11.478;2023-02-11T11:31:55;96834.91;;;5.33;64.96
19457;BME280;9867;48.094;11.478;2023-02-11T11:34:29;96836.00;;;5.52;65.46
19457;BME280;9867;48.094;11.478;2023-02-11T11:36:57;96814.69;;;5.32;64.87
19457;BME280;9867;48.094;11.478;2023-02-11T11:39:26;96832.97;;;5.26;64.68
19457;BME280;9867;48.094;11.478;2023-02-11T11:41:59;96808.91;;;5.30;66.15
19457;BME280;9867;48.094;11.478;2023-02-11T11:44:29;96815.47;;;5.64;67.50
19457;BME280;9867;48.094;11.478;2023-02-11T11:47:28;96807.81;;;5.85;62.06
19457;BME280;9867;48.094;11.478;2023-02-11T11:50:22;96818.75;;;6.27;61.91
19457;BME280;9867;48.094;11.478;2023-02-11T11:52:59;96818.50;;;6.30;57.93
19457;BME280;9867;48.094;11.478;2023-02-11T11:55:30;96821.81;;;6.21;56.84
19457;BME280;9867;48.094;11.478;2023-02-11T11:57:59;96823.56;;;6.21;56.37
19457;BME280;9867;48.094;11.478;2023-02-11T12:00:32;96836.53;;;6.48;56.44
19457;BME280;9867;48.094;11.478;2023-02-11T12:03:26;96834.53;;;6.11;54.93
19457;BME280;9867;48.094;11.478;2023-02-11T12:06:07;96837.31;;;6.08;54.64
19457;BME280;9867;48.094;11.478;2023-02-11T12:08:42;96830.13;;;6.23;54.17
19457;BME280;9867;48.094;11.478;2023-02-11T12:11:19;96818.22;;;6.24;53.42
19457;BME280;9867;48.094;11.478;2023-02-11T12:13:59;96817.09;;;6.16;50.31
19457;BME280;9867;48.094;11.478;2023-02-11T12:16:37;96817.69;;;5.99;49.67
19457;BME280;9867;48.094;11.478;2023-02-11T12:19:30;96799.31;;;5.96;50.41
19457;BME280;9867;48.094;11.478;2023-02-11T12:22:08;96818.50;;;6.00;50.30
19457;BME280;9867;48.094;11.478;2023-02-11T12:24:48;96808.88;;;6.03;50.35
19457;BME280;9867;48.094;11.478;2023-02-11T12:27:22;96822.41;;;6.04;49.04
19457;BME280;9867;48.094;11.478;2023-02-11T12:30:01;96825.41;;;6.19;49.20
19457;BME280;9867;48.094;11.478;2023-02-11T12:32:35;96825.88;;;6.03;48.97
19457;BME280;9867;48.094;11.478;2023-02-11T12:35:13;96813.97;;;6.03;48.95
19457;BME280;9867;48.094;11.478;2023-02-11T12:37:55;96809.25;;;6.39;49.05
19457;BME280;9867;48.094;11.478;2023-02-11T12:40:30;96808.94;;;6.23;49.43
19457;BME280;9867;48.094;11.478;2023-02-11T12:43:07;96800.53;;;6.32;49.60
19457;BME280;9867;48.094;11.478;2023-02-11T12:48:46;96792.09;;;6.31;49.47
19457;BME280;9867;48.094;11.478;2023-02-11T12:51:25;96781.63;;;6.34;49.86
19457;BME280;9867;48.094;11.478;2023-02-11T12:54:23;96783.94;;;6.37;49.66
19457;BME280;9867;48.094;11.478;2023-02-11T12:56:59;96781.78;;;6.42;50.18
19457;BME280;9867;48.094;11.478;2023-02-11T12:59:33;96784.66;;;6.59;49.68
19457;BME280;9867;48.094;11.478;2023-02-11T13:02:14;96769.03;;;6.42;49.44
19457;BME280;9867;48.094;11.478;2023-02-11T13:04:47;96766.22;;;6.36;49.38
19457;BME280;9867;48.094;11.478;2023-02-11T13:07:20;96769.16;;;6.41;50.01
19457;BME280;9867;48.094;11.478;2023-02-11T13:09:53;96778.28;;;6.43;49.65
19457;BME280;9867;48.094;11.478;2023-02-11T13:12:24;96775.00;;;6.22;50.68
19457;BME280;9867;48.094;11.478;2023-02-11T13:15:13;96768.28;;;6.11;50.13
19457;BME280;9867;48.094;11.478;2023-02-11T13:17:45;96768.41;;;6.10;48.84
19457;BME280;9867;48.094;11.478;2023-02-11T13:20:20;96759.59;;;6.14;48.23